sensor_id;sensor_type;location;lat;lon;timestamp;P1;durP1;ratioP1;P2;durP2;ratioP2
3677;SDS011;1855;50.934;6.958;2023-04-01T00:02:01;1.15;;;0.50;;
3677;SDS011;1855;50.934;6.958;2023-04-01T00:04:28;1.60;;;0.70;;
3677;SDS011;1855;50.934;6.958;2023-04-01T00:06:55;1.50;;;0.60;;
3677;SDS011;1855;50.934;6.958;2023-04-01T00:09:23;0.93;;;0.50;;
3677;SDS011;1855;50.934;6.958;2023-04-01T00:11:50;1.80;;;0.70;;
3677;SDS011;1855;50.934;6.958;2023-04-01T00:14:17;1.17;;;0.55;;
3677;SDS011;1855;50.934;6.958;2023-04-01T00:16:43;2.03;;;0.60;;
3677;SDS011;1855;50.934;6.958;2023-04-01T00:19:10;1.60;;;0.70;;
3677;SDS011;1855;50.934;6.958;2023-04-01T00:21:37;0.82;;;0.50;;
3677;SDS011;1855;50.934;6.958;2023-04-01T00:24:03;1.90;;;0.50;;
3677;SDS011;1855;50.934;6.958;2023-04-01T00:26:32;1.35;;;0.52;;
3677;SDS011;1855;50.934;6.958;2023-04-01T00:28:58;2.60;;;0.65;;
3677;SDS011;1855;50.934;6.958;2023-04-01T00:31:25;1.45;;;0.52;;
3677;SDS011;1855;50.934;6.958;2023-04-01T00:33:52;1.95;;;0.60;;
3677;SDS011;1855;50.934;6.958;2023-04-01T00:36:19;0.70;;;0.40;;
3677;SDS011;1855;50.934;6.958;2023-04-01T00:38:48;1.90;;;0.50;;
3677;SDS011;1855;50.934;6.958;2023-04-01T00:41:15;1.20;;;0.40;;
3677;SDS011;1855;50.934;6.958;2023-04-01T00:43:45;1.13;;;0.50;;
3677;SDS011;1855;50.934;6.958;2023-04-01T00:46:13;2.28;;;0.65;;
3677;SDS011;1855;50.934;6.958;2023-04-01T00:48:41;2.30;;;0.60;;
3677;SDS011;1855;50.934;6.958;2023-04-01T00:51:11;1.20;;;0.40;;
3677;SDS011;1855;50.934;6.958;2023-04-01T00:53:42;1.10;;;0.50;;
3677;SDS011;1855;50.934;6.958;2023-04-01T00:56:12;1.60;;;0.60;;
3677;SDS011;1855;50.934;6.958;2023-04-01T00:58:43;1.27;;;0.50;;
3677;SDS011;1855;50.934;6.958;2023-04-01T01:01:14;1.20;;;0.50;;
3677;SDS011;1855;50.934;6.958;2023-04-01T01:03:41;1.33;;;0.50;;
3677;SDS011;1855;50.934;6.958;2023-04-01T01:06:15;2.00;;;0.50;;
3677;SDS011;1855;50.934;6.958;2023-04-01T01:11:41;1.40;;;0.50;;
3677;SDS011;1855;50.934;6.958;2023-04-01T01:14:15;1.17;;;0.40;;
3677;SDS011;1855;50.934;6.958;2023-04-01T01:16:58;1.25;;;0.50;;
3677;SDS011;1855;50.934;6.958;2023-04-01T01:19:38;0.97;;;0.40;;
3677;SDS011;1855;50.934;6.958;2023-04-01T01:22:36;1.02;;;0.40;;
3677;SDS011;1855;50.934;6.958;2023-04-01T01:25:22;1.45;;;0.50;;
3677;SDS011;1855;50.934;6.958;2023-04-01T01:27:58;1.50;;;0.60;;
3677;SDS011;1855;50.934;6.958;2023-04-01T01:30:43;1.00;;;0.40;;
3677;SDS011;1855;50.934;6.958;2023-04-01T01:33:21;1.17;;;0.40;;
3677;SDS011;1855;50.934;6.958;2023-04-01T01:36:00;1.20;;;0.70;;
3677;SDS011;1855;50.934;6.958;2023-04-01T01:38:31;1.20;;;0.60;;
3677;SDS011;1855;50.934;6.958;2023-04-01T01:41:01;0.90;;;0.50;;
3677;SDS011;1855;50.934;6.958;2023-04-01T01:43:30;0.90;;;0.40;;
3677;SDS011;1855;50.934;6.958;2023-04-01T01:46:03;1.60;;;0.40;;
3677;SDS011;1855;50.934;6.958;2023-04-01T01:48:34;1.70;;;0.50;;
3677;SDS011;1855;50.934;6.958;2023-04-01T01:51:03;1.00;;;0.50;;
3677;SDS011;1855;50.934;6.958;2023-04-01T01:53:31;1.15;;;0.40;;
3677;SDS011;1855;50.934;6.958;2023-04-01T01:55:57;1.58;;;0.50;;
3677;SDS011;1855;50.934;6.958;2023-04-01T01:58:25;1.20;;;0.40;;
3677;SDS011;1855;50.934;6.958;2023-04-01T02:00:56;1.60;;;0.40;;
3677;SDS011;1855;50.934;6.958;2023-04-01T02:03:27;1.20;;;0.30;;
3677;SDS011;1855;50.934;6.958;2023-04-01T02:05:57;1.30;;;0.35;;
3677;SDS011;1855;50.934;6.958;2023-04-01T02:08:29;1.05;;;0.90;;
3677;SDS011;1855;50.934;6.958;2023-04-01T02:11:01;1.80;;;0.50;;
3677;SDS011;1855;50.934;6.958;2023-04-01T02:13:31;1.90;;;0.50;;
3677;SDS011;1855;50.934;6.958;2023-04-01T02:16:05;1.10;;;0.47;;
3677;SDS011;1855;50.934;6.958;2023-04-01T02:18:34;1.80;;;0.50;;
3677;SDS011;1855;50.934;6.958;2023-04-01T02:21:03;1.80;;;0.70;;
3677;SDS011;1855;50.934;6.958;2023-04-01T02:23:33;1.50;;;0.60;;
3677;SDS011;1855;50.934;6.958;2023-04-01T02:26:02;1.30;;;0.40;;
3677;SDS011;1855;50.934;6.958;2023-04-01T02:28:31;1.20;;;0.40;;
3677;SDS011;1855;50.934;6.958;2023-04-01T02:31:00;2.00;;;0.50;;
3677;SDS011;1855;50.934;6.958;2023-04-01T02:33:29;1.50;;;0.60;;
3677;SDS011;1855;50.934;6.958;2023-04-01T02:35:57;1.77;;;0.70;;
3677;SDS011;1855;50.934;6.958;2023-04-01T02:38:24;1.75;;;0.60;;
3677;SDS011;1855;50.934;6.958;2023-04-01T02:40:57;1.20;;;0.50;;
3677;SDS011;1855;50.934;6.958;2023-04-01T02:43:25;1.00;;;0.50;;
3677;SDS011;1855;50.934;6.958;2023-04-01T02:45:52;2.25;;;0.60;;
3677;SDS011;1855;50.934;6.958;2023-04-01T02:48:19;1.42;;;0.40;;
3677;SDS011;1855;50.934;6.958;2023-04-01T02:50:46;0.95;;;0.63;;
3677;SDS011;1855;50.934;6.958;2023-04-01T02:53:14;1.30;;;0.40;;
3677;SDS011;1855;50.934;6.958;2023-04-01T02:55:44;1.10;;;0.40;;
3677;SDS011;1855;50.934;6.958;2023-04-01T02:58:13;0.88;;;0.47;;
3677;SDS011;1855;50.934;6.958;2023-04-01T03:00:39;1.50;;;0.50;;
3677;SDS011;1855;50.934;6.958;2023-04-01T03:03:06;1.10;;;0.43;;
3677;SDS011;1855;50.934;6.958;2023-04-01T03:05:33;1.70;;;0.50;;
3677;SDS011;1855;50.934;6.958;2023-04-01T03:08:01;1.27;;;0.40;;
3677;SDS011;1855;50.934;6.958;2023-04-01T03:10:27;1.00;;;0.50;;
3677;SDS011;1855;50.934;6.958;2023-04-01T03:12:54;1.10;;;0.40;;
3677;SDS011;1855;50.934;6.958;2023-04-01T03:15:22;1.45;;;0.60;;
3677;SDS011;1855;50.934;6.958;2023-04-01T03:17:49;0.80;;;0.40;;
3677;SDS011;1855;50.934;6.958;2023-04-01T03:20:16;1.57;;;0.40;;
3677;SDS011;1855;50.934;6.958;2023-04-01T03:22:43;0.90;;;0.50;;
3677;SDS011;1855;50.934;6.958;2023-04-01T03:25:10;0.90;;;0.40;;
3677;SDS011;1855;50.934;6.958;2023-04-01T03:27:37;1.00;;;0.40;;
3677;SDS011;1855;50.934;6.958;2023-04-01T03:30:05;0.80;;;0.40;;
3677;SDS011;1855;50.934;6.958;2023-04-01T03:32:34;1.55;;;0.50;;
3677;SDS011;1855;50.934;6.958;2023-04-01T03:35:00;0.82;;;0.40;;
3677;SDS011;1855;50.934;6.958;2023-04-01T03:37:27;1.77;;;0.50;;
3677;SDS011;1855;50.934;6.958;2023-04-01T03:39:54;1.40;;;0.50;;
3677;SDS011;1855;50.934;6.958;2023-04-01T03:42:20;1.50;;;0.50;;
3677;SDS011;1855;50.934;6.958;2023-04-01T03:44:47;1.33;;;0.40;;
3677;SDS011;1855;50.934;6.958;2023-04-01T03:47:14;2.10;;;0.60;;
3677;SDS011;1855;50.934;6.958;2023-04-01T03:49:42;1.50;;;0.57;;
3677;SDS011;1855;50.934;6.958;2023-04-01T03:52:09;1.20;;;0.40;;
3677;SDS011;1855;50.934;6.958;2023-04-01T03:54:37;1.05;;;0.40;;
3677;SDS011;1855;50.934;6.958;2023-04-01T03:57:04;1.00;;;0.50;;
3677;SDS011;1855;50.934;6.958;2023-04-01T03:59:30;0.70;;;0.50;;
3677;SDS011;1855;50.934;6.958;2023-04-01T04:01:57;1.13;;;0.50;;
3677;SDS011;1855;50.934;6.958;2023-04-01T04:04:24;1.33;;;0.40;;
3677;SDS011;1855;50.934;6.958;2023-04-01T04:06:52;1.50;;;0.50;;
3677;SDS011;1855;50.934;6.958;2023-04-01T04:09:19;0.68;;;0.30;;
3677;SDS011;1855;50.934;6.958;2023-04-01T04:11:46;1.33;;;0.40;;
3677;SDS011;1855;50.934;6.958;2023-04-01T04:14:12;1.40;;;0.40;;
3677;SDS011;1855;50.934;6.958;2023-04-01T04:16:39;0.98;;;0.50;;
3677;SDS011;1855;50.934;6.958;2023-04-01T04:19:06;0.97;;;0.50;;
3677;SDS011;1855;50.934;6.958;2023-04-01T04:21:32;1.10;;;0.70;;
3677;SDS011;1855;50.934;6.958;2023-04-01T04:24:01;0.80;;;0.40;;
3677;SDS011;1855;50.934;6.958;2023-04-01T04:26:28;0.88;;;0.45;;
3677;SDS011;1855;50.934;6.958;2023-04-01T04:28:55;0.80;;;0.40;;
3677;SDS011;1855;50.934;6.958;2023-04-01T04:31:22;1.20;;;0.40;;
3677;SDS011;1855;50.934;6.958;2023-04-01T04:33:50;0.88;;;0.30;;
3677;SDS011;1855;50.934;6.958;2023-04-01T04:36:17;1.50;;;0.40;;
3677;SDS011;1855;50.934;6.958;2023-04-01T04:38:44;0.80;;;0.30;;
3677;SDS011;1855;50.934;6.958;2023-04-01T04:41:12;1.10;;;0.40;;
3677;SDS011;1855;50.934;6.958;2023-04-01T04:43:40;1.60;;;0.50;;
3677;SDS011;1855;50.934;6.958;2023-04-01T04:46:08;0.98;;;0.30;;
3677;SDS011;1855;50.934;6.958;2023-04-01T04:48:35;0.80;;;0.30;;
3677;SDS011;1855;50.934;6.958;2023-04-01T04:51:02;1.00;;;0.40;;
3677;SDS011;1855;50.934;6.958;2023-04-01T04:53:29;0.90;;;0.40;;
3677;SDS011;1855;50.934;6.958;2023-04-01T04:55:56;0.70;;;0.30;;
3677;SDS011;1855;50.934;6.958;2023-04-01T04:58:24;0.70;;;0.40;;
3677;SDS011;1855;50.934;6.958;2023-04-01T05:00:51;0.70;;;0.30;;
3677;SDS011;1855;50.934;6.958;2023-04-01T05:03:18;1.00;;;0.40;;
3677;SDS011;1855;50.934;6.958;2023-04-01T05:05:48;1.30;;;0.50;;
3677;SDS011;1855;50.934;6.958;2023-04-01T05:08:16;1.73;;;0.47;;
3677;SDS011;1855;50.934;6.958;2023-04-01T05:10:43;0.80;;;0.40;;
3677;SDS011;1855;50.934;6.958;2023-04-01T05:13:09;0.70;;;0.50;;
3677;SDS011;1855;50.934;6.958;2023-04-01T05:15:38;0.80;;;0.30;;
3677;SDS011;1855;50.934;6.958;2023-04-01T05:18:04;0.70;;;0.40;;
3677;SDS011;1855;50.934;6.958;2023-04-01T05:20:31;1.60;;;0.40;;
3677;SDS011;1855;50.934;6.958;2023-04-01T05:22:58;0.60;;;0.40;;
3677;SDS011;1855;50.934;6.958;2023-04-01T05:25:25;0.63;;;0.40;;
3677;SDS011;1855;50.934;6.958;2023-04-01T05:27:52;0.73;;;0.43;;
3677;SDS011;1855;50.934;6.958;2023-04-01T05:30:19;1.00;;;0.40;;
3677;SDS011;1855;50.934;6.958;2023-04-01T05:32:48;1.10;;;0.45;;
3677;SDS011;1855;50.934;6.958;2023-04-01T05:35:14;0.88;;;0.50;;
3677;SDS011;1855;50.934;6.958;2023-04-01T05:37:41;0.80;;;0.50;;
3677;SDS011;1855;50.934;6.958;2023-04-01T05:40:08;0.90;;;0.50;;
3677;SDS011;1855;50.934;6.958;2023-04-01T05:42:36;0.75;;;0.50;;
3677;SDS011;1855;50.934;6.958;2023-04-01T05:45:03;0.90;;;0.50;;
3677;SDS011;1855;50.934;6.958;2023-04-01T05:47:30;0.80;;;0.50;;
3677;SDS011;1855;50.934;6.958;2023-04-01T05:49:58;0.80;;;0.50;;
3677;SDS011;1855;50.934;6.958;2023-04-01T05:52:25;0.80;;;0.60;;
3677;SDS011;1855;50.934;6.958;2023-04-01T05:54:51;2.00;;;0.60;;
3677;SDS011;1855;50.934;6.958;2023-04-01T05:57:18;1.35;;;0.50;;
3677;SDS011;1855;50.934;6.958;2023-04-01T05:59:45;1.50;;;0.50;;
3677;SDS011;1855;50.934;6.958;2023-04-01T06:02:12;2.10;;;0.70;;
3677;SDS011;1855;50.934;6.958;2023-04-01T06:04:41;1.10;;;0.60;;
3677;SDS011;1855;50.934;6.958;2023-04-01T06:07:12;1.00;;;0.70;;
3677;SDS011;1855;50.934;6.958;2023-04-01T06:09:39;1.95;;;0.70;;
3677;SDS011;1855;50.934;6.958;2023-04-01T06:12:15;1.00;;;0.60;;
3677;SDS011;1855;50.934;6.958;2023-04-01T06:15:02;1.40;;;0.88;;
3677;SDS011;1855;50.934;6.958;2023-04-01T06:17:45;1.23;;;0.90;;
3677;SDS011;1855;50.934;6.958;2023-04-01T06:20:28;1.50;;;0.70;;
3677;SDS011;1855;50.934;6.958;2023-04-01T06:26:02;1.00;;;0.90;;
3677;SDS011;1855;50.934;6.958;2023-04-01T06:28:41;1.20;;;0.98;;
3677;SDS011;1855;50.934;6.958;2023-04-01T06:31:26;1.10;;;0.90;;
3677;SDS011;1855;50.934;6.958;2023-04-01T06:34:23;1.60;;;0.93;;
3677;SDS011;1855;50.934;6.958;2023-04-01T06:37:16;2.85;;;0.90;;
3677;SDS011;1855;50.934;6.958;2023-04-01T06:39:56;1.40;;;1.00;;
3677;SDS011;1855;50.934;6.958;2023-04-01T06:42:45;1.60;;;1.05;;
3677;SDS011;1855;50.934;6.958;2023-04-01T06:45:28;1.40;;;1.30;;
3677;SDS011;1855;50.934;6.958;2023-04-01T06:48:10;1.98;;;1.10;;
3677;SDS011;1855;50.934;6.958;2023-04-01T06:50:57;1.90;;;1.20;;
3677;SDS011;1855;50.934;6.958;2023-04-01T06:53:33;1.98;;;1.40;;
3677;SDS011;1855;50.934;6.958;2023-04-01T06:56:10;1.20;;;1.10;;
3677;SDS011;1855;50.934;6.958;2023-04-01T06:58:41;1.38;;;1.27;;
3677;SDS011;1855;50.934;6.958;2023-04-01T07:01:13;1.40;;;1.30;;
3677;SDS011;1855;50.934;6.958;2023-04-01T07:03:44;1.83;;;1.70;;
3677;SDS011;1855;50.934;6.958;2023-04-01T07:06:23;2.45;;;1.60;;
3677;SDS011;1855;50.934;6.958;2023-04-01T07:08:54;1.73;;;1.63;;
3677;SDS011;1855;50.934;6.958;2023-04-01T07:11:28;2.08;;;1.50;;
3677;SDS011;1855;50.934;6.958;2023-04-01T07:13:59;1.73;;;1.60;;
3677;SDS011;1855;50.934;6.958;2023-04-01T07:16:30;2.40;;;2.10;;
3677;SDS011;1855;50.934;6.958;2023-04-01T07:19:02;2.50;;;1.70;;
3677;SDS011;1855;50.934;6.958;2023-04-01T07:21:33;2.10;;;1.80;;
3677;SDS011;1855;50.934;6.958;2023-04-01T07:24:09;2.33;;;1.60;;
3677;SDS011;1855;50.934;6.958;2023-04-01T07:26:42;2.08;;;1.88;;
3677;SDS011;1855;50.934;6.958;2023-04-01T07:29:09;1.95;;;1.80;;
3677;SDS011;1855;50.934;6.958;2023-04-01T07:31:47;3.45;;;2.15;;
3677;SDS011;1855;50.934;6.958;2023-04-01T07:34:25;2.50;;;2.00;;
3677;SDS011;1855;50.934;6.958;2023-04-01T07:36:54;3.20;;;2.40;;
3677;SDS011;1855;50.934;6.958;2023-04-01T07:39:30;3.92;;;2.60;;
3677;SDS011;1855;50.934;6.958;2023-04-01T07:42:08;2.50;;;2.22;;
3677;SDS011;1855;50.934;6.958;2023-04-01T07:44:44;3.10;;;2.70;;
3677;SDS011;1855;50.934;6.958;2023-04-01T07:47:21;2.85;;;2.55;;
3677;SDS011;1855;50.934;6.958;2023-04-01T07:50:01;2.55;;;2.33;;
3677;SDS011;1855;50.934;6.958;2023-04-01T07:52:35;2.50;;;2.25;;
3677;SDS011;1855;50.934;6.958;2023-04-01T07:55:08;2.50;;;2.30;;
3677;SDS011;1855;50.934;6.958;2023-04-01T07:57:43;3.50;;;2.80;;
3677;SDS011;1855;50.934;6.958;2023-04-01T08:00:17;2.50;;;2.30;;
3677;SDS011;1855;50.934;6.958;2023-04-01T08:02:53;2.60;;;2.30;;
3677;SDS011;1855;50.934;6.958;2023-04-01T08:05:32;2.45;;;2.25;;
3677;SDS011;1855;50.934;6.958;2023-04-01T08:08:09;2.20;;;2.00;;
3677;SDS011;1855;50.934;6.958;2023-04-01T08:10:44;2.13;;;1.63;;
3677;SDS011;1855;50.934;6.958;2023-04-01T08:13:22;2.00;;;1.90;;
3677;SDS011;1855;50.934;6.958;2023-04-01T08:15:59;2.20;;;2.00;;
3677;SDS011;1855;50.934;6.958;2023-04-01T08:18:37;2.22;;;2.00;;
3677;SDS011;1855;50.934;6.958;2023-04-01T08:21:10;2.22;;;1.70;;
3677;SDS011;1855;50.934;6.958;2023-04-01T08:23:41;2.45;;;1.90;;
3677;SDS011;1855;50.934;6.958;2023-04-01T08:26:12;2.20;;;1.52;;
3677;SDS011;1855;50.934;6.958;2023-04-01T08:28:48;1.70;;;1.60;;
3677;SDS011;1855;50.934;6.958;2023-04-01T08:31:22;1.80;;;1.50;;
3677;SDS011;1855;50.934;6.958;2023-04-01T08:33:55;1.85;;;1.75;;
3677;SDS011;1855;50.934;6.958;2023-04-01T08:36:23;1.52;;;1.42;;
3677;SDS011;1855;50.934;6.958;2023-04-01T08:38:55;1.60;;;1.50;;
3677;SDS011;1855;50.934;6.958;2023-04-01T08:41:38;2.90;;;1.90;;
3677;SDS011;1855;50.934;6.958;2023-04-01T08:44:34;1.70;;;1.60;;
3677;SDS011;1855;50.934;6.958;2023-04-01T08:47:24;1.85;;;1.70;;
3677;SDS011;1855;50.934;6.958;2023-04-01T08:53:08;1.40;;;1.30;;
3677;SDS011;1855;50.934;6.958;2023-04-01T08:55:49;1.10;;;1.00;;
3677;SDS011;1855;50.934;6.958;2023-04-01T08:58:37;1.48;;;1.25;;
3677;SDS011;1855;50.934;6.958;2023-04-01T09:01:21;1.30;;;1.10;;
3677;SDS011;1855;50.934;6.958;2023-04-01T09:04:26;1.20;;;1.00;;
3677;SDS011;1855;50.934;6.958;2023-04-01T09:07:12;1.10;;;1.00;;
3677;SDS011;1855;50.934;6.958;2023-04-01T09:13:10;1.10;;;0.80;;
3677;SDS011;1855;50.934;6.958;2023-04-01T09:19:05;1.10;;;1.00;;
3677;SDS011;1855;50.934;6.958;2023-04-01T09:21:46;1.10;;;0.87;;
3677;SDS011;1855;50.934;6.958;2023-04-01T09:24:34;1.30;;;0.80;;
3677;SDS011;1855;50.934;6.958;2023-04-01T09:27:27;1.45;;;0.90;;
3677;SDS011;1855;50.934;6.958;2023-04-01T09:36:06;1.10;;;0.80;;
3677;SDS011;1855;50.934;6.958;2023-04-01T09:38:44;2.50;;;1.20;;
3677;SDS011;1855;50.934;6.958;2023-04-01T09:41:24;1.50;;;1.10;;
3677;SDS011;1855;50.934;6.958;2023-04-01T09:44:00;1.60;;;1.10;;
3677;SDS011;1855;50.934;6.958;2023-04-01T09:49:38;1.52;;;1.30;;
3677;SDS011;1855;50.934;6.958;2023-04-01T09:52:28;1.50;;;1.40;;
3677;SDS011;1855;50.934;6.958;2023-04-01T09:55:23;1.52;;;1.40;;
3677;SDS011;1855;50.934;6.958;2023-04-01T09:58:15;1.58;;;1.48;;
3677;SDS011;1855;50.934;6.958;2023-04-01T10:07:17;2.20;;;1.30;;
3677;SDS011;1855;50.934;6.958;2023-04-01T10:10:20;1.80;;;1.33;;
3677;SDS011;1855;50.934;6.958;2023-04-01T10:19:39;1.45;;;1.35;;
3677;SDS011;1855;50.934;6.958;2023-04-01T10:22:28;2.20;;;1.50;;
3677;SDS011;1855;50.934;6.958;2023-04-01T10:25:35;1.40;;;1.30;;
3677;SDS011;1855;50.934;6.958;2023-04-01T10:31:45;1.40;;;1.30;;
3677;SDS011;1855;50.934;6.958;2023-04-01T10:34:47;1.50;;;1.38;;
3677;SDS011;1855;50.934;6.958;2023-04-01T10:37:48;1.60;;;1.50;;
3677;SDS011;1855;50.934;6.958;2023-04-01T10:40:39;1.80;;;1.70;;
3677;SDS011;1855;50.934;6.958;2023-04-01T10:43:26;1.80;;;1.70;;
3677;SDS011;1855;50.934;6.958;2023-04-01T10:46:30;1.80;;;1.70;;
3677;SDS011;1855;50.934;6.958;2023-04-01T10:49:32;1.70;;;1.60;;
3677;SDS011;1855;50.934;6.958;2023-04-01T10:52:27;3.10;;;1.90;;
3677;SDS011;1855;50.934;6.958;2023-04-01T11:08:05;1.60;;;1.50;;
3677;SDS011;1855;50.934;6.958;2023-04-01T11:20:23;1.88;;;1.20;;
3677;SDS011;1855;50.934;6.958;2023-04-01T11:23:05;1.70;;;1.40;;
3677;SDS011;1855;50.934;6.958;2023-04-01T11:25:55;1.50;;;1.40;;
3677;SDS011;1855;50.934;6.958;2023-04-01T11:31:35;1.50;;;1.40;;
3677;SDS011;1855;50.934;6.958;2023-04-01T11:34:14;1.38;;;1.27;;
3677;SDS011;1855;50.934;6.958;2023-04-01T11:36:55;1.20;;;1.10;;
3677;SDS011;1855;50.934;6.958;2023-04-01T11:39:33;1.40;;;1.30;;
3677;SDS011;1855;50.934;6.958;2023-04-01T11:42:11;1.60;;;1.42;;
3677;SDS011;1855;50.934;6.958;2023-04-01T11:44:48;1.30;;;1.20;;
3677;SDS011;1855;50.934;6.958;2023-04-01T11:47:30;1.35;;;1.25;;
3677;SDS011;1855;50.934;6.958;2023-04-01T11:50:20;1.40;;;1.30;;
3677;SDS011;1855;50.934;6.958;2023-04-01T11:52:56;1.40;;;1.30;;
3677;SDS011;1855;50.934;6.958;2023-04-01T11:55:46;1.90;;;1.20;;
3677;SDS011;1855;50.934;6.958;2023-04-01T11:58:27;1.20;;;1.10;;
3677;SDS011;1855;50.934;6.958;2023-04-01T12:01:09;1.50;;;1.40;;
3677;SDS011;1855;50.934;6.958;2023-04-01T12:03:49;1.50;;;1.40;;
3677;SDS011;1855;50.934;6.958;2023-04-01T12:06:32;1.70;;;1.60;;
3677;SDS011;1855;50.934;6.958;2023-04-01T12:09:07;1.70;;;1.60;;
3677;SDS011;1855;50.934;6.958;2023-04-01T12:11:44;1.65;;;1.55;;
3677;SDS011;1855;50.934;6.958;2023-04-01T12:14:19;1.40;;;1.30;;
3677;SDS011;1855;50.934;6.958;2023-04-01T12:16:55;1.40;;;1.30;;
3677;SDS011;1855;50.934;6.958;2023-04-01T12:19:30;1.40;;;1.30;;
3677;SDS011;1855;50.934;6.958;2023-04-01T12:22:17;1.40;;;1.30;;
3677;SDS011;1855;50.934;6.958;2023-04-01T12:25:07;1.10;;;1.00;;
3677;SDS011;1855;50.934;6.958;2023-04-01T12:27:53;1.10;;;0.95;;
3677;SDS011;1855;50.934;6.958;2023-04-01T12:30:49;1.23;;;1.13;;
3677;SDS011;1855;50.934;6.958;2023-04-01T12:33:31;1.17;;;1.08;;
3677;SDS011;1855;50.934;6.958;2023-04-01T12:36:18;1.33;;;1.23;;
3677;SDS011;1855;50.934;6.958;2023-04-01T12:39:07;1.23;;;1.13;;
3677;SDS011;1855;50.934;6.958;2023-04-01T12:41:58;1.40;;;1.00;;
3677;SDS011;1855;50.934;6.958;2023-04-01T12:44:39;1.50;;;1.40;;
3677;SDS011;1855;50.934;6.958;2023-04-01T12:50:26;1.30;;;1.10;;
3677;SDS011;1855;50.934;6.958;2023-04-01T12:53:08;1.17;;;1.08;;
3677;SDS011;1855;50.934;6.958;2023-04-01T12:55:52;1.00;;;0.90;;
3677;SDS011;1855;50.934;6.958;2023-04-01T12:58:38;1.10;;;1.00;;
3677;SDS011;1855;50.934;6.958;2023-04-01T13:01:41;1.10;;;1.00;;
3677;SDS011;1855;50.934;6.958;2023-04-01T13:04:35;1.20;;;1.10;;
3677;SDS011;1855;50.934;6.958;2023-04-01T13:10:31;1.30;;;1.20;;
3677;SDS011;1855;50.934;6.958;2023-04-01T13:16:34;1.40;;;1.30;;
3677;SDS011;1855;50.934;6.958;2023-04-01T13:19:06;1.60;;;1.27;;
3677;SDS011;1855;50.934;6.958;2023-04-01T13:21:43;1.60;;;1.48;;
3677;SDS011;1855;50.934;6.958;2023-04-01T13:27:07;1.45;;;1.35;;
3677;SDS011;1855;50.934;6.958;2023-04-01T13:29:41;1.30;;;1.20;;
3677;SDS011;1855;50.934;6.958;2023-04-01T13:32:16;1.60;;;1.20;;
3677;SDS011;1855;50.934;6.958;2023-04-01T13:34:50;1.45;;;1.30;;
3677;SDS011;1855;50.934;6.958;2023-04-01T13:37:29;1.70;;;1.60;;
3677;SDS011;1855;50.934;6.958;2023-04-01T13:40:18;1.60;;;1.50;;
3677;SDS011;1855;50.934;6.958;2023-04-01T13:42:53;1.80;;;1.70;;
3677;SDS011;1855;50.934;6.958;2023-04-01T13:45:26;2.30;;;2.10;;
3677;SDS011;1855;50.934;6.958;2023-04-01T13:48:26;2.60;;;2.40;;
3677;SDS011;1855;50.934;6.958;2023-04-01T13:51:07;2.77;;;2.57;;
3677;SDS011;1855;50.934;6.958;2023-04-01T13:56:49;3.25;;;3.05;;
3677;SDS011;1855;50.934;6.958;2023-04-01T13:59:30;2.80;;;2.60;;
3677;SDS011;1855;50.934;6.958;2023-04-01T14:02:24;3.03;;;2.83;;
3677;SDS011;1855;50.934;6.958;2023-04-01T14:05:17;3.15;;;2.95;;
3677;SDS011;1855;50.934;6.958;2023-04-01T14:08:00;3.13;;;2.93;;
3677;SDS011;1855;50.934;6.958;2023-04-01T14:10:37;3.00;;;2.80;;
3677;SDS011;1855;50.934;6.958;2023-04-01T14:13:09;3.33;;;3.10;;
3677;SDS011;1855;50.934;6.958;2023-04-01T14:15:48;3.00;;;2.80;;
3677;SDS011;1855;50.934;6.958;2023-04-01T14:18:32;3.10;;;2.90;;
3677;SDS011;1855;50.934;6.958;2023-04-01T14:21:10;3.20;;;3.00;;
3677;SDS011;1855;50.934;6.958;2023-04-01T14:23:50;3.50;;;3.20;;
3677;SDS011;1855;50.934;6.958;2023-04-01T14:26:45;3.30;;;3.10;;
3677;SDS011;1855;50.934;6.958;2023-04-01T14:29:24;3.70;;;3.40;;
3677;SDS011;1855;50.934;6.958;2023-04-01T14:32:00;3.10;;;2.90;;
3677;SDS011;1855;50.934;6.958;2023-04-01T14:34:42;3.40;;;3.10;;
3677;SDS011;1855;50.934;6.958;2023-04-01T14:37:44;3.70;;;3.15;;
3677;SDS011;1855;50.934;6.958;2023-04-01T14:40:26;3.20;;;3.00;;
3677;SDS011;1855;50.934;6.958;2023-04-01T14:42:56;3.20;;;2.90;;
3677;SDS011;1855;50.934;6.958;2023-04-01T14:45:42;3.10;;;2.90;;
3677;SDS011;1855;50.934;6.958;2023-04-01T14:48:17;3.00;;;2.80;;
3677;SDS011;1855;50.934;6.958;2023-04-01T14:50:51;3.00;;;2.80;;
3677;SDS011;1855;50.934;6.958;2023-04-01T14:53:26;2.90;;;2.70;;
3677;SDS011;1855;50.934;6.958;2023-04-01T14:55:55;3.20;;;2.83;;
3677;SDS011;1855;50.934;6.958;2023-04-01T14:58:23;3.30;;;3.10;;
3677;SDS011;1855;50.934;6.958;2023-04-01T15:00:58;2.92;;;2.42;;
3677;SDS011;1855;50.934;6.958;2023-04-01T15:03:37;2.70;;;2.50;;
3677;SDS011;1855;50.934;6.958;2023-04-01T15:06:24;2.60;;;2.40;;
3677;SDS011;1855;50.934;6.958;2023-04-01T15:09:05;2.60;;;2.40;;
3677;SDS011;1855;50.934;6.958;2023-04-01T15:11:43;2.33;;;2.17;;
3677;SDS011;1855;50.934;6.958;2023-04-01T15:17:20;3.00;;;2.80;;
3677;SDS011;1855;50.934;6.958;2023-04-01T15:20:10;3.30;;;3.00;;
3677;SDS011;1855;50.934;6.958;2023-04-01T15:22:58;3.00;;;2.80;;
3677;SDS011;1855;50.934;6.958;2023-04-01T15:25:41;3.00;;;2.70;;
3677;SDS011;1855;50.934;6.958;2023-04-01T15:28:17;2.70;;;2.50;;
3677;SDS011;1855;50.934;6.958;2023-04-01T15:30:52;2.80;;;2.60;;
3677;SDS011;1855;50.934;6.958;2023-04-01T15:33:25;2.80;;;2.60;;
3677;SDS011;1855;50.934;6.958;2023-04-01T15:36:07;3.08;;;2.88;;
3677;SDS011;1855;50.934;6.958;2023-04-01T15:38:43;2.65;;;2.45;;
3677;SDS011;1855;50.934;6.958;2023-04-01T15:41:16;2.80;;;2.60;;
3677;SDS011;1855;50.934;6.958;2023-04-01T15:43:49;3.20;;;3.00;;
3677;SDS011;1855;50.934;6.958;2023-04-01T15:46:21;2.70;;;2.50;;
3677;SDS011;1855;50.934;6.958;2023-04-01T15:48:57;3.13;;;2.93;;
3677;SDS011;1855;50.934;6.958;2023-04-01T15:51:36;3.10;;;2.90;;
3677;SDS011;1855;50.934;6.958;2023-04-01T15:54:25;3.30;;;3.10;;
3677;SDS011;1855;50.934;6.958;2023-04-01T15:57:06;3.22;;;3.03;;
3677;SDS011;1855;50.934;6.958;2023-04-01T16:02:36;3.50;;;3.30;;
3677;SDS011;1855;50.934;6.958;2023-04-01T16:05:11;3.40;;;3.20;;
3677;SDS011;1855;50.934;6.958;2023-04-01T16:07:55;4.00;;;3.70;;
3677;SDS011;1855;50.934;6.958;2023-04-01T16:10:37;3.97;;;3.67;;
3677;SDS011;1855;50.934;6.958;2023-04-01T16:13:21;4.50;;;4.20;;
3677;SDS011;1855;50.934;6.958;2023-04-01T16:15:57;4.30;;;4.00;;
3677;SDS011;1855;50.934;6.958;2023-04-01T16:18:36;4.32;;;4.03;;
3677;SDS011;1855;50.934;6.958;2023-04-01T16:21:21;4.40;;;4.10;;
3677;SDS011;1855;50.934;6.958;2023-04-01T16:24:01;4.63;;;4.22;;
3677;SDS011;1855;50.934;6.958;2023-04-01T16:26:37;4.10;;;3.80;;
3677;SDS011;1855;50.934;6.958;2023-04-01T16:29:12;4.50;;;4.20;;
3677;SDS011;1855;50.934;6.958;2023-04-01T16:31:48;4.80;;;4.40;;
3677;SDS011;1855;50.934;6.958;2023-04-01T16:34:24;5.22;;;4.82;;
3677;SDS011;1855;50.934;6.958;2023-04-01T16:36:59;5.00;;;4.60;;
3677;SDS011;1855;50.934;6.958;2023-04-01T16:39:33;4.80;;;4.40;;
3677;SDS011;1855;50.934;6.958;2023-04-01T16:42:14;4.90;;;4.50;;
3677;SDS011;1855;50.934;6.958;2023-04-01T16:44:53;4.40;;;4.10;;
3677;SDS011;1855;50.934;6.958;2023-04-01T16:47:22;4.68;;;4.30;;
3677;SDS011;1855;50.934;6.958;2023-04-01T16:49:54;4.53;;;4.22;;
3677;SDS011;1855;50.934;6.958;2023-04-01T16:52:35;4.60;;;4.20;;
3677;SDS011;1855;50.934;6.958;2023-04-01T16:55:12;4.60;;;4.20;;
3677;SDS011;1855;50.934;6.958;2023-04-01T16:57:45;4.75;;;4.40;;
3677;SDS011;1855;50.934;6.958;2023-04-01T17:00:19;4.60;;;4.20;;
3677;SDS011;1855;50.934;6.958;2023-04-01T17:02:54;4.97;;;4.57;;
3677;SDS011;1855;50.934;6.958;2023-04-01T17:05:35;5.00;;;4.60;;
3677;SDS011;1855;50.934;6.958;2023-04-01T17:08:07;5.23;;;4.83;;
3677;SDS011;1855;50.934;6.958;2023-04-01T17:10:44;5.20;;;4.80;;
3677;SDS011;1855;50.934;6.958;2023-04-01T17:13:28;4.80;;;4.40;;
3677;SDS011;1855;50.934;6.958;2023-04-01T17:19:08;4.82;;;4.43;;
3677;SDS011;1855;50.934;6.958;2023-04-01T17:21:47;5.13;;;4.72;;
3677;SDS011;1855;50.934;6.958;2023-04-01T17:24:28;4.40;;;4.10;;
3677;SDS011;1855;50.934;6.958;2023-04-01T17:27:06;4.80;;;4.40;;
3677;SDS011;1855;50.934;6.958;2023-04-01T17:29:55;4.30;;;4.00;;
3677;SDS011;1855;50.934;6.958;2023-04-01T17:32:44;3.72;;;3.42;;
3677;SDS011;1855;50.934;6.958;2023-04-01T17:35:23;4.10;;;3.80;;
3677;SDS011;1855;50.934;6.958;2023-04-01T17:37:59;4.00;;;3.70;;
3677;SDS011;1855;50.934;6.958;2023-04-01T17:40:38;3.92;;;3.63;;